sensor_id;sensor_type;location;lat;lon;timestamp;P1;durP1;ratioP1;P2;durP2;ratioP2
67762;SDS011;54566;52.022;5.582;2022-07-12T00:01:45;2.47;;;1.75;;
67762;SDS011;54566;52.022;5.582;2022-07-12T00:04:11;2.00;;;1.80;;
67762;SDS011;54566;52.022;5.582;2022-07-12T00:06:36;2.40;;;1.83;;
67762;SDS011;54566;52.022;5.582;2022-07-12T00:09:02;1.92;;;1.67;;
67762;SDS011;54566;52.022;5.582;2022-07-12T00:11:28;4.90;;;1.70;;
67762;SDS011;54566;52.022;5.582;2022-07-12T00:13:54;2.58;;;1.80;;
67762;SDS011;54566;52.022;5.582;2022-07-12T00:16:20;4.20;;;2.00;;
67762;SDS011;54566;52.022;5.582;2022-07-12T00:18:46;4.63;;;1.60;;
67762;SDS011;54566;52.022;5.582;2022-07-12T00:21:12;2.25;;;1.65;;
67762;SDS011;54566;52.022;5.582;2022-07-12T00:23:38;2.15;;;1.70;;
67762;SDS011;54566;52.022;5.582;2022-07-12T00:26:03;4.55;;;1.83;;
67762;SDS011;54566;52.022;5.582;2022-07-12T00:28:32;1.98;;;1.88;;
67762;SDS011;54566;52.022;5.582;2022-07-12T00:30:58;2.33;;;1.75;;
67762;SDS011;54566;52.022;5.582;2022-07-12T00:33:24;2.30;;;2.10;;
67762;SDS011;54566;52.022;5.582;2022-07-12T00:35:50;6.45;;;1.92;;
67762;SDS011;54566;52.022;5.582;2022-07-12T00:38:16;2.00;;;1.90;;
67762;SDS011;54566;52.022;5.582;2022-07-12T00:40:41;2.10;;;1.90;;
67762;SDS011;54566;52.022;5.582;2022-07-12T00:43:07;3.10;;;1.90;;
67762;SDS011;54566;52.022;5.582;2022-07-12T00:45:32;2.35;;;2.10;;
67762;SDS011;54566;52.022;5.582;2022-07-12T00:47:58;5.05;;;2.10;;
67762;SDS011;54566;52.022;5.582;2022-07-12T00:50:24;2.42;;;2.22;;
67762;SDS011;54566;52.022;5.582;2022-07-12T00:52:51;2.10;;;1.85;;
67762;SDS011;54566;52.022;5.582;2022-07-12T00:55:19;3.88;;;2.05;;
67762;SDS011;54566;52.022;5.582;2022-07-12T00:57:45;2.97;;;2.22;;
67762;SDS011;54566;52.022;5.582;2022-07-12T01:00:14;2.90;;;1.98;;
67762;SDS011;54566;52.022;5.582;2022-07-12T01:02:45;2.50;;;2.20;;
67762;SDS011;54566;52.022;5.582;2022-07-12T01:05:12;3.22;;;2.25;;
67762;SDS011;54566;52.022;5.582;2022-07-12T01:07:38;4.10;;;2.03;;
67762;SDS011;54566;52.022;5.582;2022-07-12T01:10:05;4.88;;;2.28;;
67762;SDS011;54566;52.022;5.582;2022-07-12T01:12:32;3.60;;;2.25;;
67762;SDS011;54566;52.022;5.582;2022-07-12T01:14:58;4.47;;;2.40;;
67762;SDS011;54566;52.022;5.582;2022-07-12T01:17:25;2.95;;;2.55;;
67762;SDS011;54566;52.022;5.582;2022-07-12T01:19:52;5.20;;;1.83;;
67762;SDS011;54566;52.022;5.582;2022-07-12T01:22:20;3.25;;;2.10;;
67762;SDS011;54566;52.022;5.582;2022-07-12T01:24:58;3.92;;;2.67;;
67762;SDS011;54566;52.022;5.582;2022-07-12T01:27:25;5.68;;;2.55;;
67762;SDS011;54566;52.022;5.582;2022-07-12T01:29:52;2.45;;;2.20;;
67762;SDS011;54566;52.022;5.582;2022-07-12T01:32:17;3.25;;;2.63;;
67762;SDS011;54566;52.022;5.582;2022-07-12T01:37:24;4.22;;;2.40;;
67762;SDS011;54566;52.022;5.582;2022-07-12T01:39:54;3.70;;;2.10;;
67762;SDS011;54566;52.022;5.582;2022-07-12T01:42:23;3.20;;;2.28;;
67762;SDS011;54566;52.022;5.582;2022-07-12T01:44:50;3.33;;;2.25;;
67762;SDS011;54566;52.022;5.582;2022-07-12T01:47:17;7.97;;;2.42;;
67762;SDS011;54566;52.022;5.582;2022-07-12T01:49:43;2.75;;;2.30;;
67762;SDS011;54566;52.022;5.582;2022-07-12T01:52:08;3.78;;;2.22;;
67762;SDS011;54566;52.022;5.582;2022-07-12T01:54:34;4.40;;;1.92;;
67762;SDS011;54566;52.022;5.582;2022-07-12T01:57:01;3.20;;;2.38;;
67762;SDS011;54566;52.022;5.582;2022-07-12T01:59:27;10.75;;;2.08;;
67762;SDS011;54566;52.022;5.582;2022-07-12T02:01:55;1.83;;;1.70;;
67762;SDS011;54566;52.022;5.582;2022-07-12T02:04:21;3.50;;;2.03;;
67762;SDS011;54566;52.022;5.582;2022-07-12T02:06:47;4.55;;;1.70;;
67762;SDS011;54566;52.022;5.582;2022-07-12T02:09:14;5.03;;;1.80;;
67762;SDS011;54566;52.022;5.582;2022-07-12T02:11:42;1.90;;;1.80;;
67762;SDS011;54566;52.022;5.582;2022-07-12T02:14:09;2.75;;;2.33;;
67762;SDS011;54566;52.022;5.582;2022-07-12T02:16:37;2.78;;;2.25;;
67762;SDS011;54566;52.022;5.582;2022-07-12T02:19:03;2.47;;;2.08;;
67762;SDS011;54566;52.022;5.582;2022-07-12T02:21:29;2.30;;;2.10;;
67762;SDS011;54566;52.022;5.582;2022-07-12T02:23:54;3.10;;;2.80;;
67762;SDS011;54566;52.022;5.582;2022-07-12T02:26:20;2.55;;;2.35;;
67762;SDS011;54566;52.022;5.582;2022-07-12T02:28:46;3.85;;;2.30;;
67762;SDS011;54566;52.022;5.582;2022-07-12T02:31:11;3.35;;;2.50;;
67762;SDS011;54566;52.022;5.582;2022-07-12T02:33:37;3.17;;;2.60;;
67762;SDS011;54566;52.022;5.582;2022-07-12T02:36:02;2.55;;;2.35;;
67762;SDS011;54566;52.022;5.582;2022-07-12T02:38:28;2.78;;;2.47;;
67762;SDS011;54566;52.022;5.582;2022-07-12T02:40:54;5.32;;;2.50;;
67762;SDS011;54566;52.022;5.582;2022-07-12T02:43:20;6.70;;;2.60;;
67762;SDS011;54566;52.022;5.582;2022-07-12T02:45:50;3.08;;;2.45;;
67762;SDS011;54566;52.022;5.582;2022-07-12T02:48:17;3.10;;;2.50;;
67762;SDS011;54566;52.022;5.582;2022-07-12T02:50:43;2.63;;;2.42;;
67762;SDS011;54566;52.022;5.582;2022-07-12T02:53:09;3.83;;;2.35;;
67762;SDS011;54566;52.022;5.582;2022-07-12T02:55:36;2.35;;;2.15;;
67762;SDS011;54566;52.022;5.582;2022-07-12T02:58:02;2.30;;;2.10;;
67762;SDS011;54566;52.022;5.582;2022-07-12T03:02:56;5.15;;;2.25;;
67762;SDS011;54566;52.022;5.582;2022-07-12T03:05:22;2.40;;;2.20;;
67762;SDS011;54566;52.022;5.582;2022-07-12T03:07:47;6.07;;;2.35;;
67762;SDS011;54566;52.022;5.582;2022-07-12T03:10:13;2.58;;;2.28;;
67762;SDS011;54566;52.022;5.582;2022-07-12T03:12:38;9.93;;;2.83;;
67762;SDS011;54566;52.022;5.582;2022-07-12T03:15:04;3.47;;;3.15;;
67762;SDS011;54566;52.022;5.582;2022-07-12T03:17:32;3.38;;;2.80;;
67762;SDS011;54566;52.022;5.582;2022-07-12T03:19:58;4.40;;;2.75;;
67762;SDS011;54566;52.022;5.582;2022-07-12T03:22:24;3.03;;;2.47;;
67762;SDS011;54566;52.022;5.582;2022-07-12T03:24:50;2.80;;;2.60;;
67762;SDS011;54566;52.022;5.582;2022-07-12T03:27:16;3.65;;;2.60;;
67762;SDS011;54566;52.022;5.582;2022-07-12T03:29:41;3.97;;;2.30;;
67762;SDS011;54566;52.022;5.582;2022-07-12T03:32:07;4.45;;;2.60;;
67762;SDS011;54566;52.022;5.582;2022-07-12T03:34:33;5.20;;;2.60;;
67762;SDS011;54566;52.022;5.582;2022-07-12T03:36:59;3.13;;;2.38;;
67762;SDS011;54566;52.022;5.582;2022-07-12T03:39:25;3.28;;;2.60;;
67762;SDS011;54566;52.022;5.582;2022-07-12T03:41:50;4.85;;;2.90;;
67762;SDS011;54566;52.022;5.582;2022-07-12T03:44:16;4.43;;;3.05;;
67762;SDS011;54566;52.022;5.582;2022-07-12T03:46:42;3.78;;;3.38;;
67762;SDS011;54566;52.022;5.582;2022-07-12T03:49:07;3.65;;;3.30;;
67762;SDS011;54566;52.022;5.582;2022-07-12T03:51:33;6.05;;;3.15;;
67762;SDS011;54566;52.022;5.582;2022-07-12T03:53:59;5.43;;;3.13;;
67762;SDS011;54566;52.022;5.582;2022-07-12T03:56:25;4.05;;;3.65;;
67762;SDS011;54566;52.022;5.582;2022-07-12T03:59:09;3.75;;;3.35;;
67762;SDS011;54566;52.022;5.582;2022-07-12T04:01:34;4.35;;;3.67;;
67762;SDS011;54566;52.022;5.582;2022-07-12T04:04:00;3.75;;;3.40;;
67762;SDS011;54566;52.022;5.582;2022-07-12T04:06:26;4.68;;;3.63;;
67762;SDS011;54566;52.022;5.582;2022-07-12T04:08:52;5.05;;;3.58;;
67762;SDS011;54566;52.022;5.582;2022-07-12T04:11:17;4.22;;;3.40;;
67762;SDS011;54566;52.022;5.582;2022-07-12T04:13:43;4.45;;;3.90;;
67762;SDS011;54566;52.022;5.582;2022-07-12T04:16:09;5.85;;;4.03;;
67762;SDS011;54566;52.022;5.582;2022-07-12T04:18:34;6.65;;;4.35;;
67762;SDS011;54566;52.022;5.582;2022-07-12T04:21:00;4.13;;;3.72;;
67762;SDS011;54566;52.022;5.582;2022-07-12T04:23:25;8.43;;;3.50;;
67762;SDS011;54566;52.022;5.582;2022-07-12T04:25:51;4.63;;;3.60;;
67762;SDS011;54566;52.022;5.582;2022-07-12T04:28:17;5.07;;;3.78;;
67762;SDS011;54566;52.022;5.582;2022-07-12T04:30:42;10.13;;;3.67;;
67762;SDS011;54566;52.022;5.582;2022-07-12T04:33:09;7.95;;;4.18;;
67762;SDS011;54566;52.022;5.582;2022-07-12T04:35:35;11.18;;;6.13;;
67762;SDS011;54566;52.022;5.582;2022-07-12T04:38:02;13.30;;;6.57;;
67762;SDS011;54566;52.022;5.582;2022-07-12T04:40:28;13.23;;;6.20;;
67762;SDS011;54566;52.022;5.582;2022-07-12T04:42:53;11.15;;;5.10;;
67762;SDS011;54566;52.022;5.582;2022-07-12T04:45:19;7.28;;;4.82;;
67762;SDS011;54566;52.022;5.582;2022-07-12T04:47:45;6.85;;;4.10;;
67762;SDS011;54566;52.022;5.582;2022-07-12T04:50:10;12.43;;;4.82;;
67762;SDS011;54566;52.022;5.582;2022-07-12T04:52:36;9.68;;;5.75;;
67762;SDS011;54566;52.022;5.582;2022-07-12T04:55:02;14.35;;;4.93;;
67762;SDS011;54566;52.022;5.582;2022-07-12T04:57:28;9.57;;;5.50;;
67762;SDS011;54566;52.022;5.582;2022-07-12T04:59:54;16.17;;;5.30;;
67762;SDS011;54566;52.022;5.582;2022-07-12T05:02:19;16.83;;;5.60;;
67762;SDS011;54566;52.022;5.582;2022-07-12T05:04:46;6.70;;;5.13;;
67762;SDS011;54566;52.022;5.582;2022-07-12T05:07:12;13.35;;;5.65;;
67762;SDS011;54566;52.022;5.582;2022-07-12T05:09:38;6.93;;;5.85;;
67762;SDS011;54566;52.022;5.582;2022-07-12T05:12:03;6.22;;;5.60;;
67762;SDS011;54566;52.022;5.582;2022-07-12T05:14:30;12.40;;;5.78;;
67762;SDS011;54566;52.022;5.582;2022-07-12T05:16:56;10.27;;;6.07;;
67762;SDS011;54566;52.022;5.582;2022-07-12T05:19:22;6.32;;;5.47;;
67762;SDS011;54566;52.022;5.582;2022-07-12T05:21:48;6.57;;;5.80;;
67762;SDS011;54566;52.022;5.582;2022-07-12T05:24:14;7.28;;;6.22;;
67762;SDS011;54566;52.022;5.582;2022-07-12T05:26:39;7.93;;;5.57;;
67762;SDS011;54566;52.022;5.582;2022-07-12T05:29:06;11.40;;;5.63;;
67762;SDS011;54566;52.022;5.582;2022-07-12T05:31:32;8.80;;;6.30;;
67762;SDS011;54566;52.022;5.582;2022-07-12T05:33:57;8.27;;;5.82;;
67762;SDS011;54566;52.022;5.582;2022-07-12T05:36:25;7.63;;;6.72;;
67762;SDS011;54566;52.022;5.582;2022-07-12T05:38:51;7.90;;;6.15;;
67762;SDS011;54566;52.022;5.582;2022-07-12T05:41:18;7.65;;;5.43;;
67762;SDS011;54566;52.022;5.582;2022-07-12T05:43:44;11.52;;;6.35;;
67762;SDS011;54566;52.022;5.582;2022-07-12T05:46:10;8.98;;;6.35;;
67762;SDS011;54566;52.022;5.582;2022-07-12T05:48:36;9.10;;;7.07;;
67762;SDS011;54566;52.022;5.582;2022-07-12T05:51:03;8.43;;;6.80;;
67762;SDS011;54566;52.022;5.582;2022-07-12T05:53:47;12.23;;;6.97;;
67762;SDS011;54566;52.022;5.582;2022-07-12T05:56:13;10.50;;;7.30;;
67762;SDS011;54566;52.022;5.582;2022-07-12T05:58:39;11.20;;;7.18;;
67762;SDS011;54566;52.022;5.582;2022-07-12T06:01:05;9.27;;;6.82;;
67762;SDS011;54566;52.022;5.582;2022-07-12T06:03:31;10.27;;;7.38;;
67762;SDS011;54566;52.022;5.582;2022-07-12T06:05:57;9.52;;;6.70;;
67762;SDS011;54566;52.022;5.582;2022-07-12T06:08:22;7.95;;;7.15;;
67762;SDS011;54566;52.022;5.582;2022-07-12T06:10:48;9.43;;;7.20;;
67762;SDS011;54566;52.022;5.582;2022-07-12T06:13:13;9.20;;;7.50;;
67762;SDS011;54566;52.022;5.582;2022-07-12T06:15:39;7.40;;;6.68;;
67762;SDS011;54566;52.022;5.582;2022-07-12T06:18:05;10.27;;;7.07;;
67762;SDS011;54566;52.022;5.582;2022-07-12T06:20:31;7.30;;;6.28;;
67762;SDS011;54566;52.022;5.582;2022-07-12T06:22:57;8.48;;;6.35;;
67762;SDS011;54566;52.022;5.582;2022-07-12T06:25:23;8.85;;;7.10;;
67762;SDS011;54566;52.022;5.582;2022-07-12T06:27:49;10.13;;;6.88;;
67762;SDS011;54566;52.022;5.582;2022-07-12T06:30:19;8.45;;;7.10;;
67762;SDS011;54566;52.022;5.582;2022-07-12T06:32:46;9.45;;;7.20;;
67762;SDS011;54566;52.022;5.582;2022-07-12T06:35:13;8.77;;;6.38;;
67762;SDS011;54566;52.022;5.582;2022-07-12T06:37:39;6.70;;;6.05;;
67762;SDS011;54566;52.022;5.582;2022-07-12T06:40:08;7.28;;;6.07;;
67762;SDS011;54566;52.022;5.582;2022-07-12T06:42:35;12.80;;;6.30;;
67762;SDS011;54566;52.022;5.582;2022-07-12T06:45:00;8.88;;;5.70;;
67762;SDS011;54566;52.022;5.582;2022-07-12T06:47:26;6.70;;;6.00;;
67762;SDS011;54566;52.022;5.582;2022-07-12T06:49:52;11.88;;;5.50;;
67762;SDS011;54566;52.022;5.582;2022-07-12T06:52:18;7.20;;;5.30;;
67762;SDS011;54566;52.022;5.582;2022-07-12T06:54:43;6.32;;;5.45;;
67762;SDS011;54566;52.022;5.582;2022-07-12T06:57:09;6.70;;;5.80;;
67762;SDS011;54566;52.022;5.582;2022-07-12T06:59:35;7.32;;;5.47;;
67762;SDS011;54566;52.022;5.582;2022-07-12T07:02:01;5.95;;;4.90;;
67762;SDS011;54566;52.022;5.582;2022-07-12T07:04:27;5.47;;;4.88;;
67762;SDS011;54566;52.022;5.582;2022-07-12T07:06:53;6.35;;;4.85;;
67762;SDS011;54566;52.022;5.582;2022-07-12T07:09:18;5.80;;;4.50;;
67762;SDS011;54566;52.022;5.582;2022-07-12T07:11:44;9.27;;;4.90;;
67762;SDS011;54566;52.022;5.582;2022-07-12T07:14:10;5.80;;;4.95;;
67762;SDS011;54566;52.022;5.582;2022-07-12T07:16:36;6.78;;;5.45;;
67762;SDS011;54566;52.022;5.582;2022-07-12T07:19:02;5.65;;;4.93;;
67762;SDS011;54566;52.022;5.582;2022-07-12T07:21:28;6.07;;;4.80;;
67762;SDS011;54566;52.022;5.582;2022-07-12T07:23:55;6.85;;;5.15;;
67762;SDS011;54566;52.022;5.582;2022-07-12T07:26:21;10.63;;;5.15;;
67762;SDS011;54566;52.022;5.582;2022-07-12T07:28:47;5.85;;;4.43;;
67762;SDS011;54566;52.022;5.582;2022-07-12T07:31:34;7.13;;;5.10;;
67762;SDS011;54566;52.022;5.582;2022-07-12T07:34:01;6.07;;;4.50;;
67762;SDS011;54566;52.022;5.582;2022-07-12T07:36:27;5.00;;;4.40;;
67762;SDS011;54566;52.022;5.582;2022-07-12T07:38:52;9.50;;;4.50;;
67762;SDS011;54566;52.022;5.582;2022-07-12T07:41:18;10.18;;;4.85;;
67762;SDS011;54566;52.022;5.582;2022-07-12T07:43:44;9.45;;;4.63;;
67762;SDS011;54566;52.022;5.582;2022-07-12T07:46:10;6.60;;;4.57;;
67762;SDS011;54566;52.022;5.582;2022-07-12T07:48:35;10.05;;;4.50;;
67762;SDS011;54566;52.022;5.582;2022-07-12T07:51:01;10.55;;;4.90;;
67762;SDS011;54566;52.022;5.582;2022-07-12T07:53:26;7.45;;;4.55;;
67762;SDS011;54566;52.022;5.582;2022-07-12T07:55:52;8.95;;;3.90;;
67762;SDS011;54566;52.022;5.582;2022-07-12T07:58:18;5.05;;;3.88;;
67762;SDS011;54566;52.022;5.582;2022-07-12T08:00:45;7.97;;;4.55;;
67762;SDS011;54566;52.022;5.582;2022-07-12T08:03:12;5.38;;;4.28;;
67762;SDS011;54566;52.022;5.582;2022-07-12T08:05:38;9.57;;;4.68;;
67762;SDS011;54566;52.022;5.582;2022-07-12T08:08:03;6.25;;;4.80;;
67762;SDS011;54566;52.022;5.582;2022-07-12T08:10:29;5.97;;;3.83;;
67762;SDS011;54566;52.022;5.582;2022-07-12T08:12:55;6.20;;;3.88;;
67762;SDS011;54566;52.022;5.582;2022-07-12T08:15:20;6.72;;;4.13;;
67762;SDS011;54566;52.022;5.582;2022-07-12T08:17:47;5.45;;;3.58;;
67762;SDS011;54566;52.022;5.582;2022-07-12T08:20:13;6.88;;;3.55;;
67762;SDS011;54566;52.022;5.582;2022-07-12T08:22:45;6.50;;;3.60;;
67762;SDS011;54566;52.022;5.582;2022-07-12T08:25:12;11.82;;;3.60;;
67762;SDS011;54566;52.022;5.582;2022-07-12T08:27:38;5.75;;;3.25;;
67762;SDS011;54566;52.022;5.582;2022-07-12T08:30:03;4.20;;;3.10;;
67762;SDS011;54566;52.022;5.582;2022-07-12T08:32:30;8.05;;;3.88;;
67762;SDS011;54566;52.022;5.582;2022-07-12T08:34:55;3.50;;;3.20;;
67762;SDS011;54566;52.022;5.582;2022-07-12T08:37:21;7.72;;;3.55;;
67762;SDS011;54566;52.022;5.582;2022-07-12T08:39:47;5.68;;;3.58;;
67762;SDS011;54566;52.022;5.582;2022-07-12T08:42:14;5.82;;;4.07;;
67762;SDS011;54566;52.022;5.582;2022-07-12T08:44:41;8.13;;;3.28;;
67762;SDS011;54566;52.022;5.582;2022-07-12T08:47:07;11.25;;;3.88;;
67762;SDS011;54566;52.022;5.582;2022-07-12T08:49:35;14.20;;;4.28;;
67762;SDS011;54566;52.022;5.582;2022-07-12T08:52:17;8.60;;;4.20;;
67762;SDS011;54566;52.022;5.582;2022-07-12T08:54:53;6.15;;;3.88;;
67762;SDS011;54566;52.022;5.582;2022-07-12T08:57:28;9.02;;;4.65;;
67762;SDS011;54566;52.022;5.582;2022-07-12T08:59:58;8.52;;;4.40;;
67762;SDS011;54566;52.022;5.582;2022-07-12T09:02:25;8.77;;;3.40;;
67762;SDS011;54566;52.022;5.582;2022-07-12T09:05:07;6.30;;;3.50;;
67762;SDS011;54566;52.022;5.582;2022-07-12T09:07:36;5.55;;;3.50;;
67762;SDS011;54566;52.022;5.582;2022-07-12T09:10:04;5.50;;;4.07;;
67762;SDS011;54566;52.022;5.582;2022-07-12T09:12:34;6.07;;;4.22;;
67762;SDS011;54566;52.022;5.582;2022-07-12T09:15:14;6.35;;;4.28;;
67762;SDS011;54566;52.022;5.582;2022-07-12T09:18:05;4.93;;;3.60;;
67762;SDS011;54566;52.022;5.582;2022-07-12T09:20:37;5.32;;;4.00;;
67762;SDS011;54566;52.022;5.582;2022-07-12T09:23:04;6.05;;;3.75;;
67762;SDS011;54566;52.022;5.582;2022-07-12T09:25:31;10.45;;;3.50;;
67762;SDS011;54566;52.022;5.582;2022-07-12T09:28:02;5.35;;;3.20;;
67762;SDS011;54566;52.022;5.582;2022-07-12T09:30:29;8.70;;;3.28;;
67762;SDS011;54566;52.022;5.582;2022-07-12T09:32:59;11.60;;;4.63;;
67762;SDS011;54566;52.022;5.582;2022-07-12T09:38:32;7.47;;;3.13;;
67762;SDS011;54566;52.022;5.582;2022-07-12T09:41:01;7.28;;;3.92;;
67762;SDS011;54566;52.022;5.582;2022-07-12T09:43:28;7.38;;;4.50;;
67762;SDS011;54566;52.022;5.582;2022-07-12T09:45:54;16.93;;;3.67;;
67762;SDS011;54566;52.022;5.582;2022-07-12T09:48:20;4.65;;;3.10;;
67762;SDS011;54566;52.022;5.582;2022-07-12T09:50:48;6.28;;;5.00;;
67762;SDS011;54566;52.022;5.582;2022-07-12T09:53:19;5.55;;;4.22;;
67762;SDS011;54566;52.022;5.582;2022-07-12T09:55:50;4.75;;;4.25;;
67762;SDS011;54566;52.022;5.582;2022-07-12T09:58:18;6.03;;;3.90;;
67762;SDS011;54566;52.022;5.582;2022-07-12T10:00:53;5.68;;;2.55;;
67762;SDS011;54566;52.022;5.582;2022-07-12T10:03:20;11.07;;;3.33;;
67762;SDS011;54566;52.022;5.582;2022-07-12T10:05:50;5.05;;;3.17;;
67762;SDS011;54566;52.022;5.582;2022-07-12T10:10:47;6.10;;;2.53;;
67762;SDS011;54566;52.022;5.582;2022-07-12T10:13:14;4.47;;;2.70;;
67762;SDS011;54566;52.022;5.582;2022-07-12T10:15:40;4.25;;;3.33;;
67762;SDS011;54566;52.022;5.582;2022-07-12T10:18:17;6.07;;;4.13;;
67762;SDS011;54566;52.022;5.582;2022-07-12T10:20:45;5.45;;;4.35;;
67762;SDS011;54566;52.022;5.582;2022-07-12T10:23:31;6.00;;;5.20;;
67762;SDS011;54566;52.022;5.582;2022-07-12T10:28:55;5.65;;;3.42;;
67762;SDS011;54566;52.022;5.582;2022-07-12T10:31:23;8.65;;;3.83;;
67762;SDS011;54566;52.022;5.582;2022-07-12T10:33:59;4.97;;;3.70;;
67762;SDS011;54566;52.022;5.582;2022-07-12T10:39:24;3.33;;;3.00;;
67762;SDS011;54566;52.022;5.582;2022-07-12T10:44:41;9.98;;;4.28;;
67762;SDS011;54566;52.022;5.582;2022-07-12T10:47:09;4.10;;;3.70;;
67762;SDS011;54566;52.022;5.582;2022-07-12T10:49:37;11.38;;;3.65;;
67762;SDS011;54566;52.022;5.582;2022-07-12T10:54:38;7.10;;;3.47;;
67762;SDS011;54566;52.022;5.582;2022-07-12T10:57:05;3.53;;;3.22;;
67762;SDS011;54566;52.022;5.582;2022-07-12T10:59:35;3.50;;;2.85;;
67762;SDS011;54566;52.022;5.582;2022-07-12T11:02:02;8.50;;;3.50;;
67762;SDS011;54566;52.022;5.582;2022-07-12T11:04:28;9.93;;;3.50;;
67762;SDS011;54566;52.022;5.582;2022-07-12T11:06:55;9.63;;;3.90;;
67762;SDS011;54566;52.022;5.582;2022-07-12T11:09:22;9.55;;;4.28;;
67762;SDS011;54566;52.022;5.582;2022-07-12T11:11:49;4.70;;;4.15;;
67762;SDS011;54566;52.022;5.582;2022-07-12T11:14:20;5.40;;;4.38;;
67762;SDS011;54566;52.022;5.582;2022-07-12T11:16:50;7.05;;;3.47;;
67762;SDS011;54566;52.022;5.582;2022-07-12T11:19:20;8.75;;;4.72;;
67762;SDS011;54566;52.022;5.582;2022-07-12T11:21:48;7.88;;;4.65;;
67762;SDS011;54566;52.022;5.582;2022-07-12T11:24:20;4.75;;;3.92;;
67762;SDS011;54566;52.022;5.582;2022-07-12T11:26:48;4.82;;;3.38;;
67762;SDS011;54566;52.022;5.582;2022-07-12T11:29:14;6.32;;;3.80;;
67762;SDS011;54566;52.022;5.582;2022-07-12T11:31:39;4.28;;;3.88;;
67762;SDS011;54566;52.022;5.582;2022-07-12T11:34:05;7.28;;;2.47;;
67762;SDS011;54566;52.022;5.582;2022-07-12T11:36:31;4.05;;;2.40;;
67762;SDS011;54566;52.022;5.582;2022-07-12T11:41:25;6.80;;;3.10;;
67762;SDS011;54566;52.022;5.582;2022-07-12T11:43:51;4.75;;;2.50;;
67762;SDS011;54566;52.022;5.582;2022-07-12T11:46:16;6.18;;;2.83;;
67762;SDS011;54566;52.022;5.582;2022-07-12T11:48:42;4.30;;;2.50;;
67762;SDS011;54566;52.022;5.582;2022-07-12T11:51:11;3.95;;;2.45;;
67762;SDS011;54566;52.022;5.582;2022-07-12T11:53:38;2.50;;;2.30;;
67762;SDS011;54566;52.022;5.582;2022-07-12T11:58:32;4.15;;;2.83;;
67762;SDS011;54566;52.022;5.582;2022-07-12T12:01:03;4.82;;;3.20;;
67762;SDS011;54566;52.022;5.582;2022-07-12T12:03:30;5.03;;;3.28;;
67762;SDS011;54566;52.022;5.582;2022-07-12T12:05:57;5.82;;;3.13;;
67762;SDS011;54566;52.022;5.582;2022-07-12T12:08:23;6.50;;;2.90;;
67762;SDS011;54566;52.022;5.582;2022-07-12T12:10:56;5.07;;;2.25;;
67762;SDS011;54566;52.022;5.582;2022-07-12T12:13:23;3.75;;;3.45;;
67762;SDS011;54566;52.022;5.582;2022-07-12T12:21:01;5.90;;;3.25;;
67762;SDS011;54566;52.022;5.582;2022-07-12T12:23:28;5.40;;;2.72;;
67762;SDS011;54566;52.022;5.582;2022-07-12T12:26:14;3.90;;;2.47;;
67762;SDS011;54566;52.022;5.582;2022-07-12T12:28:45;3.13;;;2.40;;
67762;SDS011;54566;52.022;5.582;2022-07-12T12:31:13;3.33;;;2.53;;
67762;SDS011;54566;52.022;5.582;2022-07-12T12:33:41;7.28;;;2.65;;
67762;SDS011;54566;52.022;5.582;2022-07-12T12:36:15;3.63;;;2.20;;
67762;SDS011;54566;52.022;5.582;2022-07-12T12:38:45;2.58;;;1.70;;
67762;SDS011;54566;52.022;5.582;2022-07-12T12:41:13;3.97;;;2.93;;
67762;SDS011;54566;52.022;5.582;2022-07-12T12:43:39;3.65;;;2.47;;
67762;SDS011;54566;52.022;5.582;2022-07-12T12:46:06;3.70;;;3.20;;
67762;SDS011;54566;52.022;5.582;2022-07-12T12:48:32;5.32;;;2.40;;
67762;SDS011;54566;52.022;5.582;2022-07-12T12:51:02;7.93;;;3.00;;
67762;SDS011;54566;52.022;5.582;2022-07-12T12:53:31;3.50;;;2.80;;
67762;SDS011;54566;52.022;5.582;2022-07-12T12:55:57;5.22;;;2.58;;
67762;SDS011;54566;52.022;5.582;2022-07-12T12:58:24;3.58;;;2.28;;
67762;SDS011;54566;52.022;5.582;2022-07-12T13:00:51;5.95;;;2.55;;
67762;SDS011;54566;52.022;5.582;2022-07-12T13:03:19;7.32;;;2.60;;
67762;SDS011;54566;52.022;5.582;2022-07-12T13:05:46;3.40;;;1.70;;
67762;SDS011;54566;52.022;5.582;2022-07-12T13:08:13;3.03;;;1.83;;
67762;SDS011;54566;52.022;5.582;2022-07-12T13:10:40;3.85;;;1.52;;
67762;SDS011;54566;52.022;5.582;2022-07-12T13:13:07;2.92;;;1.52;;
67762;SDS011;54566;52.022;5.582;2022-07-12T13:15:34;4.72;;;1.40;;
67762;SDS011;54566;52.022;5.582;2022-07-12T13:17:59;2.33;;;1.50;;
67762;SDS011;54566;52.022;5.582;2022-07-12T13:20:26;1.38;;;1.00;;
67762;SDS011;54566;52.022;5.582;2022-07-12T13:22:52;6.47;;;1.10;;
67762;SDS011;54566;52.022;5.582;2022-07-12T13:25:18;8.88;;;1.85;;
67762;SDS011;54566;52.022;5.582;2022-07-12T13:27:44;1.80;;;1.50;;
67762;SDS011;54566;52.022;5.582;2022-07-12T13:30:12;7.60;;;1.70;;
67762;SDS011;54566;52.022;5.582;2022-07-12T13:32:38;1.58;;;1.30;;
67762;SDS011;54566;52.022;5.582;2022-07-12T13:35:05;1.85;;;1.40;;
67762;SDS011;54566;52.022;5.582;2022-07-12T13:37:31;1.83;;;1.40;;
67762;SDS011;54566;52.022;5.582;2022-07-12T13:39:57;3.67;;;1.33;;
67762;SDS011;54566;52.022;5.582;2022-07-12T13:42:45;5.88;;;1.63;;
67762;SDS011;54566;52.022;5.582;2022-07-12T13:45:19;5.22;;;1.20;;
67762;SDS011;54566;52.022;5.582;2022-07-12T13:47:48;3.28;;;1.50;;
67762;SDS011;54566;52.022;5.582;2022-07-12T13:50:15;3.38;;;1.42;;
67762;SDS011;54566;52.022;5.582;2022-07-12T13:52:42;4.80;;;1.20;;
67762;SDS011;54566;52.022;5.582;2022-07-12T13:55:08;3.45;;;1.55;;
67762;SDS011;54566;52.022;5.582;2022-07-12T13:57:36;7.07;;;1.50;;
67762;SDS011;54566;52.022;5.582;2022-07-12T14:02:34;5.85;;;1.30;;
67762;SDS011;54566;52.022;5.582;2022-07-12T14:05:00;14.20;;;1.50;;
67762;SDS011;54566;52.022;5.582;2022-07-12T14:07:27;6.03;;;1.50;;
67762;SDS011;54566;52.022;5.582;2022-07-12T14:09:53;4.95;;;1.30;;
67762;SDS011;54566;52.022;5.582;2022-07-12T14:12:18;13.55;;;1.50;;
67762;SDS011;54566;52.022;5.582;2022-07-12T14:14:44;5.55;;;1.35;;
67762;SDS011;54566;52.022;5.582;2022-07-12T14:17:28;10.60;;;1.60;;
67762;SDS011;54566;52.022;5.582;2022-07-12T14:19:54;2.47;;;1.23;;
67762;SDS011;54566;52.022;5.582;2022-07-12T14:22:20;5.85;;;1.40;;
67762;SDS011;54566;52.022;5.582;2022-07-12T14:24:46;4.15;;;1.40;;
67762;SDS011;54566;52.022;5.582;2022-07-12T14:27:12;5.35;;;1.30;;
67762;SDS011;54566;52.022;5.582;2022-07-12T14:29:38;5.05;;;1.52;;
67762;SDS011;54566;52.022;5.582;2022-07-12T14:32:03;4.60;;;1.45;;
67762;SDS011;54566;52.022;5.582;2022-07-12T14:34:30;2.47;;;1.27;;
67762;SDS011;54566;52.022;5.582;2022-07-12T14:36:55;3.92;;;1.75;;
67762;SDS011;54566;52.022;5.582;2022-07-12T14:39:21;2.63;;;1.40;;
67762;SDS011;54566;52.022;5.582;2022-07-12T14:41:48;2.85;;;1.48;;
67762;SDS011;54566;52.022;5.582;2022-07-12T14:44:13;2.60;;;1.52;;
67762;SDS011;54566;52.022;5.582;2022-07-12T14:46:39;4.97;;;1.80;;
67762;SDS011;54566;52.022;5.582;2022-07-12T14:49:05;4.15;;;1.75;;
67762;SDS011;54566;52.022;5.582;2022-07-12T14:51:31;5.43;;;1.55;;
67762;SDS011;54566;52.022;5.582;2022-07-12T14:53:56;6.95;;;1.63;;
67762;SDS011;54566;52.022;5.582;2022-07-12T14:56:22;5.93;;;1.33;;
67762;SDS011;54566;52.022;5.582;2022-07-12T14:58:47;4.85;;;1.50;;
67762;SDS011;54566;52.022;5.582;2022-07-12T15:01:13;7.65;;;1.75;;
67762;SDS011;54566;52.022;5.582;2022-07-12T15:03:39;5.95;;;1.73;;
67762;SDS011;54566;52.022;5.582;2022-07-12T15:06:04;4.57;;;1.70;;
67762;SDS011;54566;52.022;5.582;2022-07-12T15:08:30;2.13;;;1.40;;
67762;SDS011;54566;52.022;5.582;2022-07-12T15:10:56;4.95;;;1.50;;
67762;SDS011;54566;52.022;5.582;2022-07-12T15:13:23;5.25;;;1.25;;
67762;SDS011;54566;52.022;5.582;2022-07-12T15:15:48;8.20;;;1.70;;
67762;SDS011;54566;52.022;5.582;2022-07-12T15:18:14;4.75;;;1.60;;
67762;SDS011;54566;52.022;5.582;2022-07-12T15:20:41;7.55;;;1.50;;